sensor_id;sensor_type;location;lat;lon;timestamp;temperature;humidity
14182;DHT22;7171;50.936;6.764;2023-06-01T00:01:28;19.10;94.40
14182;DHT22;7171;50.936;6.764;2023-06-01T00:03:58;19.10;94.50
14182;DHT22;7171;50.936;6.764;2023-06-01T00:06:26;19.00;94.70
14182;DHT22;7171;50.936;6.764;2023-06-01T00:08:54;19.00;94.70
14182;DHT22;7171;50.936;6.764;2023-06-01T00:11:20;18.90;94.80
14182;DHT22;7171;50.936;6.764;2023-06-01T00:13:47;18.90;94.80
14182;DHT22;7171;50.936;6.764;2023-06-01T00:16:15;18.80;95.00
14182;DHT22;7171;50.936;6.764;2023-06-01T00:18:41;18.70;95.00
14182;DHT22;7171;50.936;6.764;2023-06-01T00:21:09;18.70;94.90
14182;DHT22;7171;50.936;6.764;2023-06-01T00:23:37;18.70;95.10
14182;DHT22;7171;50.936;6.764;2023-06-01T00:26:07;18.60;95.10
14182;DHT22;7171;50.936;6.764;2023-06-01T00:28:33;18.60;95.20
14182;DHT22;7171;50.936;6.764;2023-06-01T00:31:00;18.50;95.40
14182;DHT22;7171;50.936;6.764;2023-06-01T00:33:27;18.50;95.00
14182;DHT22;7171;50.936;6.764;2023-06-01T00:35:54;18.40;95.30
14182;DHT22;7171;50.936;6.764;2023-06-01T00:38:21;18.40;95.60
14182;DHT22;7171;50.936;6.764;2023-06-01T00:40:49;18.40;95.70
14182;DHT22;7171;50.936;6.764;2023-06-01T00:43:16;18.30;95.60
14182;DHT22;7171;50.936;6.764;2023-06-01T00:45:43;18.30;95.70
14182;DHT22;7171;50.936;6.764;2023-06-01T00:48:11;18.20;95.90
14182;DHT22;7171;50.936;6.764;2023-06-01T00:50:38;18.20;95.90
14182;DHT22;7171;50.936;6.764;2023-06-01T00:53:07;18.10;96.20
14182;DHT22;7171;50.936;6.764;2023-06-01T00:55:34;18.10;95.90
14182;DHT22;7171;50.936;6.764;2023-06-01T00:58:02;18.00;95.90
14182;DHT22;7171;50.936;6.764;2023-06-01T01:00:29;18.00;96.00
14182;DHT22;7171;50.936;6.764;2023-06-01T01:02:56;18.00;96.00
14182;DHT22;7171;50.936;6.764;2023-06-01T01:05:26;18.00;96.40
14182;DHT22;7171;50.936;6.764;2023-06-01T01:07:57;17.90;96.10
14182;DHT22;7171;50.936;6.764;2023-06-01T01:10:29;17.90;96.30
14182;DHT22;7171;50.936;6.764;2023-06-01T01:13:05;17.80;96.10
14182;DHT22;7171;50.936;6.764;2023-06-01T01:15:44;17.80;96.40
14182;DHT22;7171;50.936;6.764;2023-06-01T01:18:16;17.80;96.20
14182;DHT22;7171;50.936;6.764;2023-06-01T01:20:49;17.80;96.40
14182;DHT22;7171;50.936;6.764;2023-06-01T01:23:44;17.70;96.40
14182;DHT22;7171;50.936;6.764;2023-06-01T01:26:24;17.70;96.70
14182;DHT22;7171;50.936;6.764;2023-06-01T01:28:54;18.30;96.80
14182;DHT22;7171;50.936;6.764;2023-06-01T01:31:24;17.70;96.50
14182;DHT22;7171;50.936;6.764;2023-06-01T01:33:54;17.60;96.60
14182;DHT22;7171;50.936;6.764;2023-06-01T01:36:23;17.60;96.70
14182;DHT22;7171;50.936;6.764;2023-06-01T01:38:50;17.60;96.70
14182;DHT22;7171;50.936;6.764;2023-06-01T01:41:19;18.20;96.70
14182;DHT22;7171;50.936;6.764;2023-06-01T01:43:47;17.50;96.60
14182;DHT22;7171;50.936;6.764;2023-06-01T01:46:24;17.40;97.00
14182;DHT22;7171;50.936;6.764;2023-06-01T01:48:57;17.40;96.90
14182;DHT22;7171;50.936;6.764;2023-06-01T01:51:31;17.30;98.20
14182;DHT22;7171;50.936;6.764;2023-06-01T01:54:03;16.70;96.60
14182;DHT22;7171;50.936;6.764;2023-06-01T01:56:31;17.30;97.00
14182;DHT22;7171;50.936;6.764;2023-06-01T01:58:59;17.30;97.00
14182;DHT22;7171;50.936;6.764;2023-06-01T02:01:27;17.20;97.10
14182;DHT22;7171;50.936;6.764;2023-06-01T02:04:02;17.20;97.10
14182;DHT22;7171;50.936;6.764;2023-06-01T02:06:29;17.20;97.30
14182;DHT22;7171;50.936;6.764;2023-06-01T02:08:56;17.20;97.40
14182;DHT22;7171;50.936;6.764;2023-06-01T02:11:22;17.10;97.20
14182;DHT22;7171;50.936;6.764;2023-06-01T02:13:50;17.10;97.20
14182;DHT22;7171;50.936;6.764;2023-06-01T02:16:17;17.00;97.30
14182;DHT22;7171;50.936;6.764;2023-06-01T02:18:45;17.00;97.30
14182;DHT22;7171;50.936;6.764;2023-06-01T02:21:12;17.00;97.60
14182;DHT22;7171;50.936;6.764;2023-06-01T02:23:39;17.00;97.50
14182;DHT22;7171;50.936;6.764;2023-06-01T02:26:06;16.90;97.40
14182;DHT22;7171;50.936;6.764;2023-06-01T02:28:33;16.90;97.50
14182;DHT22;7171;50.936;6.764;2023-06-01T02:31:00;16.80;97.50
14182;DHT22;7171;50.936;6.764;2023-06-01T02:33:27;16.80;97.90
14182;DHT22;7171;50.936;6.764;2023-06-01T02:35:55;16.80;98.10
14182;DHT22;7171;50.936;6.764;2023-06-01T02:38:22;16.70;98.10
14182;DHT22;7171;50.936;6.764;2023-06-01T02:40:49;16.70;98.00
14182;DHT22;7171;50.936;6.764;2023-06-01T02:43:16;16.60;98.10
14182;DHT22;7171;50.936;6.764;2023-06-01T02:45:42;16.60;98.10
14182;DHT22;7171;50.936;6.764;2023-06-01T02:48:09;16.60;98.10
14182;DHT22;7171;50.936;6.764;2023-06-01T02:50:36;16.50;98.20
14182;DHT22;7171;50.936;6.764;2023-06-01T02:53:04;16.50;98.50
14182;DHT22;7171;50.936;6.764;2023-06-01T02:55:31;16.50;98.70
14182;DHT22;7171;50.936;6.764;2023-06-01T02:57:58;16.50;99.10
14182;DHT22;7171;50.936;6.764;2023-06-01T03:00:25;16.50;98.50
14182;DHT22;7171;50.936;6.764;2023-06-01T03:02:53;16.40;98.70
14182;DHT22;7171;50.936;6.764;2023-06-01T03:05:19;16.40;98.90
14182;DHT22;7171;50.936;6.764;2023-06-01T03:07:47;16.40;99.10
14182;DHT22;7171;50.936;6.764;2023-06-01T03:10:15;16.30;99.00
14182;DHT22;7171;50.936;6.764;2023-06-01T03:12:42;16.30;99.40
14182;DHT22;7171;50.936;6.764;2023-06-01T03:15:09;16.20;99.50
14182;DHT22;7171;50.936;6.764;2023-06-01T03:17:36;16.20;99.30
14182;DHT22;7171;50.936;6.764;2023-06-01T03:20:03;16.10;99.80
14182;DHT22;7171;50.936;6.764;2023-06-01T03:22:40;16.10;99.90
14182;DHT22;7171;50.936;6.764;2023-06-01T03:25:07;16.10;99.50
14182;DHT22;7171;50.936;6.764;2023-06-01T03:27:35;16.00;99.60
14182;DHT22;7171;50.936;6.764;2023-06-01T03:30:02;16.00;99.60
14182;DHT22;7171;50.936;6.764;2023-06-01T03:32:29;16.00;99.90
14182;DHT22;7171;50.936;6.764;2023-06-01T03:34:56;15.90;99.90
14182;DHT22;7171;50.936;6.764;2023-06-01T03:37:23;15.90;99.90
14182;DHT22;7171;50.936;6.764;2023-06-01T03:39:49;15.80;99.90
14182;DHT22;7171;50.936;6.764;2023-06-01T03:42:16;15.70;99.90
14182;DHT22;7171;50.936;6.764;2023-06-01T03:44:46;15.70;99.90
14182;DHT22;7171;50.936;6.764;2023-06-01T03:47:13;15.60;99.90
14182;DHT22;7171;50.936;6.764;2023-06-01T03:49:40;15.50;99.90
14182;DHT22;7171;50.936;6.764;2023-06-01T03:52:07;15.50;99.90
14182;DHT22;7171;50.936;6.764;2023-06-01T03:54:34;15.50;99.90
14182;DHT22;7171;50.936;6.764;2023-06-01T03:57:01;15.50;99.90
14182;DHT22;7171;50.936;6.764;2023-06-01T03:59:28;15.40;99.90
14182;DHT22;7171;50.936;6.764;2023-06-01T04:01:56;15.40;99.90
14182;DHT22;7171;50.936;6.764;2023-06-01T04:04:26;15.40;99.90
14182;DHT22;7171;50.936;6.764;2023-06-01T04:06:54;15.40;99.90
14182;DHT22;7171;50.936;6.764;2023-06-01T04:09:26;15.40;99.90
14182;DHT22;7171;50.936;6.764;2023-06-01T04:11:53;15.30;99.90
14182;DHT22;7171;50.936;6.764;2023-06-01T04:14:21;15.30;99.90
14182;DHT22;7171;50.936;6.764;2023-06-01T04:16:47;15.30;99.90
14182;DHT22;7171;50.936;6.764;2023-06-01T04:19:16;15.20;99.90
14182;DHT22;7171;50.936;6.764;2023-06-01T04:21:43;15.20;99.90
14182;DHT22;7171;50.936;6.764;2023-06-01T04:26:36;15.10;99.90
14182;DHT22;7171;50.936;6.764;2023-06-01T04:29:03;15.10;99.90
14182;DHT22;7171;50.936;6.764;2023-06-01T04:31:31;15.10;99.90
14182;DHT22;7171;50.936;6.764;2023-06-01T04:33:59;15.10;99.90
14182;DHT22;7171;50.936;6.764;2023-06-01T04:36:28;14.90;99.90
14182;DHT22;7171;50.936;6.764;2023-06-01T04:38:55;15.10;99.90
14182;DHT22;7171;50.936;6.764;2023-06-01T04:41:23;15.10;99.90
14182;DHT22;7171;50.936;6.764;2023-06-01T04:43:50;15.10;99.90
14182;DHT22;7171;50.936;6.764;2023-06-01T04:51:14;15.00;99.90
14182;DHT22;7171;50.936;6.764;2023-06-01T04:53:47;15.00;99.90
14182;DHT22;7171;50.936;6.764;2023-06-01T04:56:17;15.00;99.90
14182;DHT22;7171;50.936;6.764;2023-06-01T04:58:45;14.90;99.90
14182;DHT22;7171;50.936;6.764;2023-06-01T05:01:13;14.90;99.90
14182;DHT22;7171;50.936;6.764;2023-06-01T05:03:41;14.90;99.90
14182;DHT22;7171;50.936;6.764;2023-06-01T05:06:08;14.90;99.90
14182;DHT22;7171;50.936;6.764;2023-06-01T05:08:36;14.90;99.90
14182;DHT22;7171;50.936;6.764;2023-06-01T05:11:04;14.90;99.90
14182;DHT22;7171;50.936;6.764;2023-06-01T05:13:32;14.90;99.90
14182;DHT22;7171;50.936;6.764;2023-06-01T05:16:00;14.90;99.90
14182;DHT22;7171;50.936;6.764;2023-06-01T05:18:26;14.90;99.90
14182;DHT22;7171;50.936;6.764;2023-06-01T05:20:53;14.90;99.90
14182;DHT22;7171;50.936;6.764;2023-06-01T05:23:20;15.00;99.90
14182;DHT22;7171;50.936;6.764;2023-06-01T05:25:47;14.90;99.90
14182;DHT22;7171;50.936;6.764;2023-06-01T05:28:15;15.00;99.90
14182;DHT22;7171;50.936;6.764;2023-06-01T05:30:42;15.00;99.90
14182;DHT22;7171;50.936;6.764;2023-06-01T05:33:08;15.00;99.90
14182;DHT22;7171;50.936;6.764;2023-06-01T05:35:36;15.00;99.90
14182;DHT22;7171;50.936;6.764;2023-06-01T05:38:03;15.00;99.90
14182;DHT22;7171;50.936;6.764;2023-06-01T05:40:29;15.00;99.90
14182;DHT22;7171;50.936;6.764;2023-06-01T05:42:56;15.10;99.90
14182;DHT22;7171;50.936;6.764;2023-06-01T05:45:24;15.10;99.90
14182;DHT22;7171;50.936;6.764;2023-06-01T05:47:51;15.10;99.90
14182;DHT22;7171;50.936;6.764;2023-06-01T05:50:18;15.10;99.90
14182;DHT22;7171;50.936;6.764;2023-06-01T05:52:45;15.10;99.90
14182;DHT22;7171;50.936;6.764;2023-06-01T05:55:12;15.10;99.90
14182;DHT22;7171;50.936;6.764;2023-06-01T05:57:39;15.10;99.90
14182;DHT22;7171;50.936;6.764;2023-06-01T06:00:07;15.10;99.90
14182;DHT22;7171;50.936;6.764;2023-06-01T06:02:36;15.10;99.90
14182;DHT22;7171;50.936;6.764;2023-06-01T06:05:04;15.10;99.90
14182;DHT22;7171;50.936;6.764;2023-06-01T06:07:31;15.10;99.90
14182;DHT22;7171;50.936;6.764;2023-06-01T06:09:58;15.10;99.90
14182;DHT22;7171;50.936;6.764;2023-06-01T06:12:25;15.10;99.90
14182;DHT22;7171;50.936;6.764;2023-06-01T06:14:52;15.10;99.90
14182;DHT22;7171;50.936;6.764;2023-06-01T06:17:19;15.10;99.90
14182;DHT22;7171;50.936;6.764;2023-06-01T06:19:47;14.60;99.90
14182;DHT22;7171;50.936;6.764;2023-06-01T06:22:15;15.10;99.90
14182;DHT22;7171;50.936;6.764;2023-06-01T06:24:42;15.10;99.90
14182;DHT22;7171;50.936;6.764;2023-06-01T06:27:09;15.10;99.90
14182;DHT22;7171;50.936;6.764;2023-06-01T06:29:35;15.10;99.90
14182;DHT22;7171;50.936;6.764;2023-06-01T06:32:02;15.00;99.90
14182;DHT22;7171;50.936;6.764;2023-06-01T06:34:29;15.00;99.90
14182;DHT22;7171;50.936;6.764;2023-06-01T06:37:03;14.90;99.90
14182;DHT22;7171;50.936;6.764;2023-06-01T06:39:30;14.90;99.90
14182;DHT22;7171;50.936;6.764;2023-06-01T06:41:56;14.90;99.90
14182;DHT22;7171;50.936;6.764;2023-06-01T06:44:23;14.90;99.90
14182;DHT22;7171;50.936;6.764;2023-06-01T06:46:50;14.90;99.90
14182;DHT22;7171;50.936;6.764;2023-06-01T06:49:17;14.90;99.90
14182;DHT22;7171;50.936;6.764;2023-06-01T06:51:44;14.90;99.90
14182;DHT22;7171;50.936;6.764;2023-06-01T06:54:12;14.90;99.90
14182;DHT22;7171;50.936;6.764;2023-06-01T06:56:39;14.90;99.90
14182;DHT22;7171;50.936;6.764;2023-06-01T06:59:06;14.90;99.90
14182;DHT22;7171;50.936;6.764;2023-06-01T07:01:33;14.90;99.90
14182;DHT22;7171;50.936;6.764;2023-06-01T07:04:03;14.90;99.90
14182;DHT22;7171;50.936;6.764;2023-06-01T07:06:30;14.90;99.90
14182;DHT22;7171;50.936;6.764;2023-06-01T07:08:58;14.90;99.90
14182;DHT22;7171;50.936;6.764;2023-06-01T07:11:27;14.90;99.90
14182;DHT22;7171;50.936;6.764;2023-06-01T07:13:54;14.90;99.90
14182;DHT22;7171;50.936;6.764;2023-06-01T07:18:51;14.90;99.90
14182;DHT22;7171;50.936;6.764;2023-06-01T07:21:18;14.80;99.90
14182;DHT22;7171;50.936;6.764;2023-06-01T07:23:45;14.80;99.90
14182;DHT22;7171;50.936;6.764;2023-06-01T07:26:12;14.80;99.90
14182;DHT22;7171;50.936;6.764;2023-06-01T07:28:40;14.80;99.90
14182;DHT22;7171;50.936;6.764;2023-06-01T07:31:08;14.80;99.90
14182;DHT22;7171;50.936;6.764;2023-06-01T07:33:35;14.80;99.90
14182;DHT22;7171;50.936;6.764;2023-06-01T07:36:03;14.70;99.90
14182;DHT22;7171;50.936;6.764;2023-06-01T07:38:30;14.70;99.90
14182;DHT22;7171;50.936;6.764;2023-06-01T07:40:58;14.70;99.90
14182;DHT22;7171;50.936;6.764;2023-06-01T07:43:25;14.80;99.90
14182;DHT22;7171;50.936;6.764;2023-06-01T07:45:53;14.80;99.90
14182;DHT22;7171;50.936;6.764;2023-06-01T07:48:20;14.80;99.90
14182;DHT22;7171;50.936;6.764;2023-06-01T07:50:47;14.80;99.90
14182;DHT22;7171;50.936;6.764;2023-06-01T07:53:13;14.90;99.90
14182;DHT22;7171;50.936;6.764;2023-06-01T07:55:40;14.90;99.90
14182;DHT22;7171;50.936;6.764;2023-06-01T07:58:09;15.00;99.90
14182;DHT22;7171;50.936;6.764;2023-06-01T08:00:36;15.00;99.90
14182;DHT22;7171;50.936;6.764;2023-06-01T08:03:04;15.00;99.90
14182;DHT22;7171;50.936;6.764;2023-06-01T08:05:31;15.00;99.90
14182;DHT22;7171;50.936;6.764;2023-06-01T08:07:58;15.00;99.90
14182;DHT22;7171;50.936;6.764;2023-06-01T08:10:25;15.00;99.90
14182;DHT22;7171;50.936;6.764;2023-06-01T08:12:52;15.00;99.90
14182;DHT22;7171;50.936;6.764;2023-06-01T08:15:21;15.10;99.90
14182;DHT22;7171;50.936;6.764;2023-06-01T08:17:49;15.10;99.90
14182;DHT22;7171;50.936;6.764;2023-06-01T08:20:17;15.10;99.90
14182;DHT22;7171;50.936;6.764;2023-06-01T08:22:47;15.10;99.90
14182;DHT22;7171;50.936;6.764;2023-06-01T08:25:14;15.20;99.90
14182;DHT22;7171;50.936;6.764;2023-06-01T08:27:41;15.10;99.90
14182;DHT22;7171;50.936;6.764;2023-06-01T08:30:09;15.20;99.90
14182;DHT22;7171;50.936;6.764;2023-06-01T08:32:36;15.20;99.90
14182;DHT22;7171;50.936;6.764;2023-06-01T08:35:05;15.20;99.90
14182;DHT22;7171;50.936;6.764;2023-06-01T08:37:33;15.30;99.90
14182;DHT22;7171;50.936;6.764;2023-06-01T08:40:00;15.40;99.90
14182;DHT22;7171;50.936;6.764;2023-06-01T08:42:32;15.40;99.90
14182;DHT22;7171;50.936;6.764;2023-06-01T08:45:04;15.50;99.90
14182;DHT22;7171;50.936;6.764;2023-06-01T08:47:32;15.50;99.90
14182;DHT22;7171;50.936;6.764;2023-06-01T08:49:59;15.60;99.90
14182;DHT22;7171;50.936;6.764;2023-06-01T08:52:28;15.70;99.90
14182;DHT22;7171;50.936;6.764;2023-06-01T08:55:00;15.70;99.90
14182;DHT22;7171;50.936;6.764;2023-06-01T08:57:27;15.80;99.90
14182;DHT22;7171;50.936;6.764;2023-06-01T08:59:55;15.90;99.90
14182;DHT22;7171;50.936;6.764;2023-06-01T09:02:22;16.00;99.90
14182;DHT22;7171;50.936;6.764;2023-06-01T09:04:49;16.10;99.90
14182;DHT22;7171;50.936;6.764;2023-06-01T09:07:16;16.10;99.90
14182;DHT22;7171;50.936;6.764;2023-06-01T09:09:44;16.20;99.90
14182;DHT22;7171;50.936;6.764;2023-06-01T09:12:21;16.30;99.90
14182;DHT22;7171;50.936;6.764;2023-06-01T09:14:49;16.30;99.90
14182;DHT22;7171;50.936;6.764;2023-06-01T09:17:21;16.40;99.90
14182;DHT22;7171;50.936;6.764;2023-06-01T09:19:50;16.40;99.90
14182;DHT22;7171;50.936;6.764;2023-06-01T09:22:17;16.50;99.90
14182;DHT22;7171;50.936;6.764;2023-06-01T09:24:55;16.60;99.90
14182;DHT22;7171;50.936;6.764;2023-06-01T09:27:25;16.60;99.90
14182;DHT22;7171;50.936;6.764;2023-06-01T09:29:55;16.70;99.90
14182;DHT22;7171;50.936;6.764;2023-06-01T09:32:22;16.70;99.90
14182;DHT22;7171;50.936;6.764;2023-06-01T09:34:49;16.80;99.90
14182;DHT22;7171;50.936;6.764;2023-06-01T09:37:16;16.90;99.90
14182;DHT22;7171;50.936;6.764;2023-06-01T09:39:43;17.00;99.90
14182;DHT22;7171;50.936;6.764;2023-06-01T09:42:10;17.10;99.90
14182;DHT22;7171;50.936;6.764;2023-06-01T09:44:39;17.10;99.90
14182;DHT22;7171;50.936;6.764;2023-06-01T09:47:07;17.20;99.90
14182;DHT22;7171;50.936;6.764;2023-06-01T09:49:37;17.30;99.90
14182;DHT22;7171;50.936;6.764;2023-06-01T09:52:10;17.40;99.90
14182;DHT22;7171;50.936;6.764;2023-06-01T09:57:08;17.60;99.90
14182;DHT22;7171;50.936;6.764;2023-06-01T09:59:45;17.70;99.90
14182;DHT22;7171;50.936;6.764;2023-06-01T10:02:13;17.80;99.90
14182;DHT22;7171;50.936;6.764;2023-06-01T10:04:42;17.90;99.90
14182;DHT22;7171;50.936;6.764;2023-06-01T10:07:12;18.00;99.90
14182;DHT22;7171;50.936;6.764;2023-06-01T10:09:41;18.00;99.90
14182;DHT22;7171;50.936;6.764;2023-06-01T10:12:08;18.10;99.90
14182;DHT22;7171;50.936;6.764;2023-06-01T10:14:36;18.10;99.90
14182;DHT22;7171;50.936;6.764;2023-06-01T10:17:05;18.20;99.90
14182;DHT22;7171;50.936;6.764;2023-06-01T10:19:33;18.30;99.90
14182;DHT22;7171;50.936;6.764;2023-06-01T10:22:02;18.30;99.90
14182;DHT22;7171;50.936;6.764;2023-06-01T10:24:29;18.30;99.90
14182;DHT22;7171;50.936;6.764;2023-06-01T10:27:04;18.30;99.90
14182;DHT22;7171;50.936;6.764;2023-06-01T10:29:33;18.40;99.90
14182;DHT22;7171;50.936;6.764;2023-06-01T10:32:00;18.40;99.90
14182;DHT22;7171;50.936;6.764;2023-06-01T10:34:39;18.50;99.90
14182;DHT22;7171;50.936;6.764;2023-06-01T10:37:14;18.60;99.90
14182;DHT22;7171;50.936;6.764;2023-06-01T10:39:41;17.90;99.90
14182;DHT22;7171;50.936;6.764;2023-06-01T10:42:39;18.70;99.90
14182;DHT22;7171;50.936;6.764;2023-06-01T10:45:08;18.70;99.90
14182;DHT22;7171;50.936;6.764;2023-06-01T10:47:54;18.70;99.90
14182;DHT22;7171;50.936;6.764;2023-06-01T10:50:22;18.80;99.90
14182;DHT22;7171;50.936;6.764;2023-06-01T10:52:49;18.80;99.90
14182;DHT22;7171;50.936;6.764;2023-06-01T10:55:24;18.90;99.90
14182;DHT22;7171;50.936;6.764;2023-06-01T10:57:51;18.90;99.90
14182;DHT22;7171;50.936;6.764;2023-06-01T11:00:19;19.00;99.90
14182;DHT22;7171;50.936;6.764;2023-06-01T11:02:51;19.00;99.90
14182;DHT22;7171;50.936;6.764;2023-06-01T11:05:38;19.10;99.50
14182;DHT22;7171;50.936;6.764;2023-06-01T11:08:06;19.10;99.10
14182;DHT22;7171;50.936;6.764;2023-06-01T11:10:54;19.10;99.40
14182;DHT22;7171;50.936;6.764;2023-06-01T11:13:22;20.40;99.90
14182;DHT22;7171;50.936;6.764;2023-06-01T11:16:28;19.20;99.90
14182;DHT22;7171;50.936;6.764;2023-06-01T11:18:56;19.30;99.50
14182;DHT22;7171;50.936;6.764;2023-06-01T11:21:31;19.40;99.70
14182;DHT22;7171;50.936;6.764;2023-06-01T11:23:59;19.40;99.70
14182;DHT22;7171;50.936;6.764;2023-06-01T11:26:30;19.50;99.90
14182;DHT22;7171;50.936;6.764;2023-06-01T11:29:12;19.60;98.90
14182;DHT22;7171;50.936;6.764;2023-06-01T11:31:42;19.60;99.00
14182;DHT22;7171;50.936;6.764;2023-06-01T11:34:10;19.70;98.80
14182;DHT22;7171;50.936;6.764;2023-06-01T11:36:41;19.70;98.40
14182;DHT22;7171;50.936;6.764;2023-06-01T11:39:17;19.70;98.50
14182;DHT22;7171;50.936;6.764;2023-06-01T11:41:46;19.80;98.70
14182;DHT22;7171;50.936;6.764;2023-06-01T11:44:13;19.80;98.40
14182;DHT22;7171;50.936;6.764;2023-06-01T11:46:50;19.80;98.70
14182;DHT22;7171;50.936;6.764;2023-06-01T11:49:17;19.90;99.00
14182;DHT22;7171;50.936;6.764;2023-06-01T11:51:45;19.90;98.50
14182;DHT22;7171;50.936;6.764;2023-06-01T11:54:12;20.00;98.30
14182;DHT22;7171;50.936;6.764;2023-06-01T11:56:39;20.10;98.80
14182;DHT22;7171;50.936;6.764;2023-06-01T11:59:07;20.10;98.60
14182;DHT22;7171;50.936;6.764;2023-06-01T12:01:36;20.20;98.20
14182;DHT22;7171;50.936;6.764;2023-06-01T12:04:12;20.30;98.30
14182;DHT22;7171;50.936;6.764;2023-06-01T12:06:38;20.30;98.10
14182;DHT22;7171;50.936;6.764;2023-06-01T12:09:07;20.40;98.10
14182;DHT22;7171;50.936;6.764;2023-06-01T12:11:35;20.40;98.00
14182;DHT22;7171;50.936;6.764;2023-06-01T12:14:02;20.40;98.00
14182;DHT22;7171;50.936;6.764;2023-06-01T12:16:52;20.50;98.00
14182;DHT22;7171;50.936;6.764;2023-06-01T12:19:19;20.60;98.20
14182;DHT22;7171;50.936;6.764;2023-06-01T12:21:47;20.60;97.90
14182;DHT22;7171;50.936;6.764;2023-06-01T12:24:16;20.70;98.30
14182;DHT22;7171;50.936;6.764;2023-06-01T12:26:43;20.80;98.40
14182;DHT22;7171;50.936;6.764;2023-06-01T12:29:10;20.90;98.60
14182;DHT22;7171;50.936;6.764;2023-06-01T12:31:37;21.00;98.50
14182;DHT22;7171;50.936;6.764;2023-06-01T12:34:15;21.10;98.30
14182;DHT22;7171;50.936;6.764;2023-06-01T12:36:42;21.20;98.50
14182;DHT22;7171;50.936;6.764;2023-06-01T12:39:09;21.30;98.30
14182;DHT22;7171;50.936;6.764;2023-06-01T12:41:47;21.40;98.20
14182;DHT22;7171;50.936;6.764;2023-06-01T12:44:18;21.40;97.70
14182;DHT22;7171;50.936;6.764;2023-06-01T12:46:46;21.50;98.00
14182;DHT22;7171;50.936;6.764;2023-06-01T12:49:14;21.50;98.00
14182;DHT22;7171;50.936;6.764;2023-06-01T12:51:42;21.60;97.90
14182;DHT22;7171;50.936;6.764;2023-06-01T12:54:09;21.70;97.40
14182;DHT22;7171;50.936;6.764;2023-06-01T12:56:35;21.70;97.40
14182;DHT22;7171;50.936;6.764;2023-06-01T12:59:04;21.70;97.40
14182;DHT22;7171;50.936;6.764;2023-06-01T13:01:31;21.70;97.50
14182;DHT22;7171;50.936;6.764;2023-06-01T13:03:58;21.80;97.70
14182;DHT22;7171;50.936;6.764;2023-06-01T13:06:25;21.90;97.90
14182;DHT22;7171;50.936;6.764;2023-06-01T13:08:53;22.00;97.20
14182;DHT22;7171;50.936;6.764;2023-06-01T13:11:20;22.00;97.30
14182;DHT22;7171;50.936;6.764;2023-06-01T13:13:48;22.00;97.40
14182;DHT22;7171;50.936;6.764;2023-06-01T13:16:16;22.00;97.00
14182;DHT22;7171;50.936;6.764;2023-06-01T13:18:44;22.00;97.10
14182;DHT22;7171;50.936;6.764;2023-06-01T13:21:13;22.00;97.30
14182;DHT22;7171;50.936;6.764;2023-06-01T13:23:40;22.00;97.00
14182;DHT22;7171;50.936;6.764;2023-06-01T13:26:07;22.10;96.40
14182;DHT22;7171;50.936;6.764;2023-06-01T13:28:35;22.10;96.60
14182;DHT22;7171;50.936;6.764;2023-06-01T13:31:02;22.10;96.90
14182;DHT22;7171;50.936;6.764;2023-06-01T13:33:30;22.10;96.20
14182;DHT22;7171;50.936;6.764;2023-06-01T13:35:58;22.20;96.10
14182;DHT22;7171;50.936;6.764;2023-06-01T13:38:25;22.20;95.20
14182;DHT22;7171;50.936;6.764;2023-06-01T13:40:51;22.20;94.80
14182;DHT22;7171;50.936;6.764;2023-06-01T13:43:18;22.00;94.70
14182;DHT22;7171;50.936;6.764;2023-06-01T13:45:45;22.10;95.20
14182;DHT22;7171;50.936;6.764;2023-06-01T13:48:12;22.10;95.50
14182;DHT22;7171;50.936;6.764;2023-06-01T13:50:40;22.10;95.20
14182;DHT22;7171;50.936;6.764;2023-06-01T13:53:06;22.20;93.90
14182;DHT22;7171;50.936;6.764;2023-06-01T13:55:35;22.20;93.70
14182;DHT22;7171;50.936;6.764;2023-06-01T13:58:02;22.20;93.80
14182;DHT22;7171;50.936;6.764;2023-06-01T14:00:29;22.30;94.70
14182;DHT22;7171;50.936;6.764;2023-06-01T14:02:56;22.30;94.30
14182;DHT22;7171;50.936;6.764;2023-06-01T14:05:22;22.30;93.40
14182;DHT22;7171;50.936;6.764;2023-06-01T14:07:50;22.30;93.40
14182;DHT22;7171;50.936;6.764;2023-06-01T14:10:17;22.30;93.10
14182;DHT22;7171;50.936;6.764;2023-06-01T14:12:44;22.30;93.80
14182;DHT22;7171;50.936;6.764;2023-06-01T14:15:11;22.30;94.00
14182;DHT22;7171;50.936;6.764;2023-06-01T14:17:38;22.40;94.40
14182;DHT22;7171;50.936;6.764;2023-06-01T14:22:33;22.60;94.30
14182;DHT22;7171;50.936;6.764;2023-06-01T14:25:01;22.70;94.40
14182;DHT22;7171;50.936;6.764;2023-06-01T14:27:28;22.80;94.60
14182;DHT22;7171;50.936;6.764;2023-06-01T14:29:55;22.90;94.30
14182;DHT22;7171;50.936;6.764;2023-06-01T14:32:21;23.00;94.20
14182;DHT22;7171;50.936;6.764;2023-06-01T14:34:48;23.00;94.10
14182;DHT22;7171;50.936;6.764;2023-06-01T14:37:15;23.00;93.10
14182;DHT22;7171;50.936;6.764;2023-06-01T14:39:42;23.00;93.70
14182;DHT22;7171;50.936;6.764;2023-06-01T14:42:10;23.00;94.10
14182;DHT22;7171;50.936;6.764;2023-06-01T14:44:36;23.00;93.60
14182;DHT22;7171;50.936;6.764;2023-06-01T14:47:03;22.90;93.70
14182;DHT22;7171;50.936;6.764;2023-06-01T14:49:30;22.90;93.60
14182;DHT22;7171;50.936;6.764;2023-06-01T14:51:57;22.90;92.80
14182;DHT22;7171;50.936;6.764;2023-06-01T14:54:24;22.80;92.90
14182;DHT22;7171;50.936;6.764;2023-06-01T14:56:50;22.70;92.20
14182;DHT22;7171;50.936;6.764;2023-06-01T14:59:18;22.60;91.80
14182;DHT22;7171;50.936;6.764;2023-06-01T15:01:45;22.60;92.40
14182;DHT22;7171;50.936;6.764;2023-06-01T15:04:12;22.50;92.70
14182;DHT22;7171;50.936;6.764;2023-06-01T15:06:39;22.60;93.00
14182;DHT22;7171;50.936;6.764;2023-06-01T15:09:05;22.60;92.40
14182;DHT22;7171;50.936;6.764;2023-06-01T15:11:32;22.60;92.90
14182;DHT22;7171;50.936;6.764;2023-06-01T15:13:59;22.60;92.80
14182;DHT22;7171;50.936;6.764;2023-06-01T15:16:27;22.60;92.30
14182;DHT22;7171;50.936;6.764;2023-06-01T15:18:54;22.60;92.70
14182;DHT22;7171;50.936;6.764;2023-06-01T15:21:21;22.60;93.00
14182;DHT22;7171;50.936;6.764;2023-06-01T15:23:48;22.70;93.30
14182;DHT22;7171;50.936;6.764;2023-06-01T15:26:14;22.80;93.10
14182;DHT22;7171;50.936;6.764;2023-06-01T15:28:41;22.80;93.00
14182;DHT22;7171;50.936;6.764;2023-06-01T15:31:08;22.90;92.90
14182;DHT22;7171;50.936;6.764;2023-06-01T15:33:36;22.70;92.80
14182;DHT22;7171;50.936;6.764;2023-06-01T15:36:03;22.90;92.50
14182;DHT22;7171;50.936;6.764;2023-06-01T15:38:31;22.90;92.70
14182;DHT22;7171;50.936;6.764;2023-06-01T15:40:58;22.90;92.50
14182;DHT22;7171;50.936;6.764;2023-06-01T15:43:25;23.20;92.50
14182;DHT22;7171;50.936;6.764;2023-06-01T15:45:51;22.90;92.10
14182;DHT22;7171;50.936;6.764;2023-06-01T15:48:18;22.90;92.20
14182;DHT22;7171;50.936;6.764;2023-06-01T15:50:46;22.80;92.70
14182;DHT22;7171;50.936;6.764;2023-06-01T15:53:13;22.80;93.30
14182;DHT22;7171;50.936;6.764;2023-06-01T15:55:40;22.70;92.90
14182;DHT22;7171;50.936;6.764;2023-06-01T15:58:06;23.00;95.10
14182;DHT22;7171;50.936;6.764;2023-06-01T16:00:33;22.60;95.00
14182;DHT22;7171;50.936;6.764;2023-06-01T16:03:00;22.80;94.00
14182;DHT22;7171;50.936;6.764;2023-06-01T16:05:27;18.00;91.10
14182;DHT22;7171;50.936;6.764;2023-06-01T16:07:55;22.40;92.40